sensor_id;sensor_type;location;lat;lon;timestamp;P1;durP1;ratioP1;P2;durP2;ratioP2
45252;SDS011;63171;50.520;30.486;2023-05-10T00:00:36;7.38;;;3.58;;
45252;SDS011;63171;50.520;30.486;2023-05-10T00:07:31;5.43;;;2.63;;
45252;SDS011;63171;50.520;30.486;2023-05-10T00:08:21;7.85;;;3.67;;
45252;SDS011;63171;50.520;30.486;2023-05-10T00:09:11;7.20;;;3.38;;
45252;SDS011;63171;50.520;30.486;2023-05-10T00:10:02;6.25;;;3.45;;
45252;SDS011;63171;50.520;30.486;2023-05-10T00:10:52;7.20;;;3.50;;
45252;SDS011;63171;50.520;30.486;2023-05-10T00:11:43;4.20;;;3.13;;
45252;SDS011;63171;50.520;30.486;2023-05-10T00:12:32;5.68;;;3.88;;
45252;SDS011;63171;50.520;30.486;2023-05-10T00:13:22;5.68;;;3.35;;
45252;SDS011;63171;50.520;30.486;2023-05-10T00:14:12;4.15;;;2.58;;
45252;SDS011;63171;50.520;30.486;2023-05-10T00:15:02;3.97;;;3.10;;
45252;SDS011;63171;50.520;30.486;2023-05-10T00:15:55;6.18;;;3.30;;
45252;SDS011;63171;50.520;30.486;2023-05-10T00:16:44;4.53;;;3.10;;
45252;SDS011;63171;50.520;30.486;2023-05-10T00:17:35;7.70;;;4.38;;
45252;SDS011;63171;50.520;30.486;2023-05-10T00:18:25;3.63;;;2.78;;
45252;SDS011;63171;50.520;30.486;2023-05-10T00:19:15;6.63;;;3.03;;
45252;SDS011;63171;50.520;30.486;2023-05-10T00:20:05;4.43;;;3.28;;
45252;SDS011;63171;50.520;30.486;2023-05-10T00:20:56;10.43;;;3.60;;
45252;SDS011;63171;50.520;30.486;2023-05-10T00:21:46;4.28;;;3.42;;
45252;SDS011;63171;50.520;30.486;2023-05-10T00:22:37;4.47;;;3.20;;
45252;SDS011;63171;50.520;30.486;2023-05-10T00:23:26;6.97;;;3.67;;
45252;SDS011;63171;50.520;30.486;2023-05-10T00:24:16;4.28;;;3.40;;
45252;SDS011;63171;50.520;30.486;2023-05-10T00:25:07;5.30;;;3.47;;
45252;SDS011;63171;50.520;30.486;2023-05-10T00:25:58;5.80;;;3.13;;
45252;SDS011;63171;50.520;30.486;2023-05-10T00:26:48;5.40;;;2.85;;
45252;SDS011;63171;50.520;30.486;2023-05-10T00:27:38;8.10;;;3.67;;
45252;SDS011;63171;50.520;30.486;2023-05-10T00:28:29;3.13;;;2.65;;
45252;SDS011;63171;50.520;30.486;2023-05-10T00:29:19;5.70;;;3.38;;
45252;SDS011;63171;50.520;30.486;2023-05-10T00:30:10;3.65;;;3.22;;
45252;SDS011;63171;50.520;30.486;2023-05-10T00:31:01;4.57;;;2.90;;
45252;SDS011;63171;50.520;30.486;2023-05-10T00:31:53;5.60;;;3.20;;
45252;SDS011;63171;50.520;30.486;2023-05-10T00:32:42;4.10;;;3.00;;
45252;SDS011;63171;50.520;30.486;2023-05-10T00:33:32;4.68;;;3.00;;
45252;SDS011;63171;50.520;30.486;2023-05-10T00:34:23;6.07;;;3.28;;
45252;SDS011;63171;50.520;30.486;2023-05-10T00:35:13;4.38;;;2.72;;
45252;SDS011;63171;50.520;30.486;2023-05-10T00:36:04;3.92;;;3.53;;
45252;SDS011;63171;50.520;30.486;2023-05-10T00:36:56;6.95;;;3.63;;
45252;SDS011;63171;50.520;30.486;2023-05-10T00:37:47;9.20;;;3.20;;
45252;SDS011;63171;50.520;30.486;2023-05-10T00:38:38;4.10;;;3.30;;
45252;SDS011;63171;50.520;30.486;2023-05-10T00:39:29;3.63;;;3.05;;
45252;SDS011;63171;50.520;30.486;2023-05-10T00:40:18;6.68;;;2.97;;
45252;SDS011;63171;50.520;30.486;2023-05-10T00:41:13;3.63;;;2.70;;
45252;SDS011;63171;50.520;30.486;2023-05-10T00:42:03;5.18;;;2.80;;
45252;SDS011;63171;50.520;30.486;2023-05-10T00:42:54;3.92;;;3.10;;
45252;SDS011;63171;50.520;30.486;2023-05-10T00:43:44;3.58;;;2.70;;
45252;SDS011;63171;50.520;30.486;2023-05-10T00:44:35;4.72;;;2.30;;
45252;SDS011;63171;50.520;30.486;2023-05-10T00:45:24;3.35;;;2.70;;
45252;SDS011;63171;50.520;30.486;2023-05-10T00:46:16;4.53;;;3.03;;
45252;SDS011;63171;50.520;30.486;2023-05-10T00:47:06;4.68;;;3.13;;
45252;SDS011;63171;50.520;30.486;2023-05-10T00:47:58;7.95;;;2.95;;
45252;SDS011;63171;50.520;30.486;2023-05-10T00:48:49;5.05;;;2.53;;
45252;SDS011;63171;50.520;30.486;2023-05-10T00:49:39;5.60;;;3.50;;
45252;SDS011;63171;50.520;30.486;2023-05-10T00:50:31;5.32;;;3.33;;
45252;SDS011;63171;50.520;30.486;2023-05-10T00:51:22;6.13;;;3.55;;
45252;SDS011;63171;50.520;30.486;2023-05-10T00:52:13;6.68;;;4.10;;
45252;SDS011;63171;50.520;30.486;2023-05-10T00:53:04;5.88;;;3.42;;
45252;SDS011;63171;50.520;30.486;2023-05-10T00:53:54;7.45;;;3.47;;
45252;SDS011;63171;50.520;30.486;2023-05-10T00:54:45;4.47;;;2.58;;
45252;SDS011;63171;50.520;30.486;2023-05-10T00:55:36;4.38;;;3.15;;
45252;SDS011;63171;50.520;30.486;2023-05-10T00:56:26;4.93;;;3.05;;
45252;SDS011;63171;50.520;30.486;2023-05-10T00:57:18;5.03;;;2.90;;
45252;SDS011;63171;50.520;30.486;2023-05-10T00:58:08;4.78;;;3.53;;
45252;SDS011;63171;50.520;30.486;2023-05-10T00:58:59;3.92;;;2.90;;
45252;SDS011;63171;50.520;30.486;2023-05-10T00:59:50;5.22;;;3.72;;
45252;SDS011;63171;50.520;30.486;2023-05-10T01:00:40;8.95;;;3.40;;
45252;SDS011;63171;50.520;30.486;2023-05-10T01:01:34;6.18;;;3.90;;
45252;SDS011;63171;50.520;30.486;2023-05-10T01:02:24;4.97;;;3.40;;
45252;SDS011;63171;50.520;30.486;2023-05-10T01:03:16;5.57;;;3.20;;
45252;SDS011;63171;50.520;30.486;2023-05-10T01:04:06;5.70;;;3.55;;
45252;SDS011;63171;50.520;30.486;2023-05-10T01:04:57;5.57;;;3.50;;
45252;SDS011;63171;50.520;30.486;2023-05-10T01:05:48;3.33;;;2.95;;
45252;SDS011;63171;50.520;30.486;2023-05-10T01:06:41;3.63;;;2.97;;
45252;SDS011;63171;50.520;30.486;2023-05-10T01:07:31;4.90;;;2.95;;
45252;SDS011;63171;50.520;30.486;2023-05-10T01:08:22;3.28;;;2.92;;
45252;SDS011;63171;50.520;30.486;2023-05-10T01:09:13;6.25;;;3.47;;
45252;SDS011;63171;50.520;30.486;2023-05-10T01:10:04;3.58;;;2.58;;
45252;SDS011;63171;50.520;30.486;2023-05-10T01:10:54;3.70;;;2.63;;
45252;SDS011;63171;50.520;30.486;2023-05-10T01:11:46;7.95;;;3.10;;
45252;SDS011;63171;50.520;30.486;2023-05-10T01:12:37;5.65;;;3.58;;
45252;SDS011;63171;50.520;30.486;2023-05-10T01:13:31;8.13;;;3.35;;
45252;SDS011;63171;50.520;30.486;2023-05-10T01:14:23;5.97;;;3.17;;
45252;SDS011;63171;50.520;30.486;2023-05-10T01:16:20;5.07;;;2.67;;
45252;SDS011;63171;50.520;30.486;2023-05-10T01:17:11;4.25;;;2.85;;
45252;SDS011;63171;50.520;30.486;2023-05-10T01:18:02;5.15;;;3.28;;
45252;SDS011;63171;50.520;30.486;2023-05-10T01:18:52;5.20;;;2.75;;
45252;SDS011;63171;50.520;30.486;2023-05-10T01:19:43;3.10;;;2.90;;
45252;SDS011;63171;50.520;30.486;2023-05-10T01:20:35;4.32;;;3.33;;
45252;SDS011;63171;50.520;30.486;2023-05-10T01:21:32;8.27;;;3.60;;
45252;SDS011;63171;50.520;30.486;2023-05-10T01:24:14;6.28;;;3.35;;
45252;SDS011;63171;50.520;30.486;2023-05-10T01:25:38;6.72;;;3.17;;
45252;SDS011;63171;50.520;30.486;2023-05-10T01:28:55;3.85;;;2.70;;
45252;SDS011;63171;50.520;30.486;2023-05-10T01:30:05;4.70;;;2.80;;
45252;SDS011;63171;50.520;30.486;2023-05-10T01:31:21;5.15;;;2.83;;
45252;SDS011;63171;50.520;30.486;2023-05-10T01:32:22;5.10;;;3.42;;
45252;SDS011;63171;50.520;30.486;2023-05-10T01:33:19;3.20;;;2.67;;
45252;SDS011;63171;50.520;30.486;2023-05-10T01:34:16;5.13;;;3.22;;
45252;SDS011;63171;50.520;30.486;2023-05-10T01:35:13;3.85;;;3.45;;
45252;SDS011;63171;50.520;30.486;2023-05-10T01:36:08;3.92;;;2.97;;
45252;SDS011;63171;50.520;30.486;2023-05-10T01:37:09;4.78;;;3.10;;
45252;SDS011;63171;50.520;30.486;2023-05-10T01:38:04;5.53;;;2.97;;
45252;SDS011;63171;50.520;30.486;2023-05-10T01:39:04;7.25;;;3.13;;
45252;SDS011;63171;50.520;30.486;2023-05-10T01:40:03;4.15;;;2.90;;
45252;SDS011;63171;50.520;30.486;2023-05-10T01:41:05;3.95;;;2.83;;
45252;SDS011;63171;50.520;30.486;2023-05-10T01:42:05;2.60;;;2.28;;
45252;SDS011;63171;50.520;30.486;2023-05-10T01:43:00;3.22;;;2.75;;
45252;SDS011;63171;50.520;30.486;2023-05-10T01:43:53;3.35;;;2.50;;
45252;SDS011;63171;50.520;30.486;2023-05-10T01:44:52;5.82;;;3.08;;
45252;SDS011;63171;50.520;30.486;2023-05-10T01:45:50;3.72;;;3.00;;
45252;SDS011;63171;50.520;30.486;2023-05-10T01:46:50;6.82;;;3.45;;
45252;SDS011;63171;50.520;30.486;2023-05-10T01:47:50;4.85;;;2.72;;
45252;SDS011;63171;50.520;30.486;2023-05-10T01:48:47;3.50;;;2.58;;
45252;SDS011;63171;50.520;30.486;2023-05-10T01:49:41;3.63;;;2.78;;
45252;SDS011;63171;50.520;30.486;2023-05-10T01:50:37;3.22;;;2.70;;
45252;SDS011;63171;50.520;30.486;2023-05-10T01:51:31;7.65;;;3.28;;
45252;SDS011;63171;50.520;30.486;2023-05-10T01:52:30;6.65;;;3.67;;
45252;SDS011;63171;50.520;30.486;2023-05-10T01:53:23;3.65;;;2.78;;
45252;SDS011;63171;50.520;30.486;2023-05-10T01:55:07;2.97;;;2.45;;
45252;SDS011;63171;50.520;30.486;2023-05-10T01:56:00;3.22;;;2.70;;
45252;SDS011;63171;50.520;30.486;2023-05-10T01:56:55;3.72;;;2.85;;
45252;SDS011;63171;50.520;30.486;2023-05-10T01:57:56;3.80;;;2.55;;
45252;SDS011;63171;50.520;30.486;2023-05-10T01:58:52;3.08;;;2.65;;
45252;SDS011;63171;50.520;30.486;2023-05-10T01:59:44;3.83;;;3.25;;
45252;SDS011;63171;50.520;30.486;2023-05-10T02:00:40;5.93;;;3.05;;
45252;SDS011;63171;50.520;30.486;2023-05-10T02:01:33;2.58;;;2.35;;
45252;SDS011;63171;50.520;30.486;2023-05-10T02:02:27;4.45;;;2.83;;
45252;SDS011;63171;50.520;30.486;2023-05-10T02:04:10;2.88;;;2.58;;
45252;SDS011;63171;50.520;30.486;2023-05-10T02:05:05;4.78;;;2.38;;
45252;SDS011;63171;50.520;30.486;2023-05-10T02:05:56;5.50;;;2.63;;
45252;SDS011;63171;50.520;30.486;2023-05-10T02:06:47;9.13;;;2.80;;
45252;SDS011;63171;50.520;30.486;2023-05-10T02:07:39;2.97;;;2.40;;
45252;SDS011;63171;50.520;30.486;2023-05-10T02:08:30;2.83;;;2.30;;
45252;SDS011;63171;50.520;30.486;2023-05-10T02:09:23;5.63;;;2.78;;
45252;SDS011;63171;50.520;30.486;2023-05-10T02:10:17;2.50;;;1.98;;
45252;SDS011;63171;50.520;30.486;2023-05-10T02:11:10;3.40;;;2.50;;
45252;SDS011;63171;50.520;30.486;2023-05-10T02:12:03;3.92;;;2.88;;
45252;SDS011;63171;50.520;30.486;2023-05-10T02:12:58;3.65;;;2.65;;
45252;SDS011;63171;50.520;30.486;2023-05-10T02:13:49;2.95;;;2.03;;
45252;SDS011;63171;50.520;30.486;2023-05-10T02:14:41;3.13;;;2.42;;
45252;SDS011;63171;50.520;30.486;2023-05-10T02:15:33;2.97;;;2.65;;
45252;SDS011;63171;50.520;30.486;2023-05-10T02:16:25;7.97;;;3.83;;
45252;SDS011;63171;50.520;30.486;2023-05-10T02:17:17;2.92;;;2.50;;
45252;SDS011;63171;50.520;30.486;2023-05-10T02:18:12;3.85;;;2.10;;
45252;SDS011;63171;50.520;30.486;2023-05-10T02:19:04;7.05;;;2.95;;
45252;SDS011;63171;50.520;30.486;2023-05-10T02:19:57;4.13;;;2.40;;
45252;SDS011;63171;50.520;30.486;2023-05-10T02:20:48;4.53;;;2.22;;
45252;SDS011;63171;50.520;30.486;2023-05-10T02:21:41;5.72;;;2.58;;
45252;SDS011;63171;50.520;30.486;2023-05-10T02:22:33;6.95;;;2.45;;
45252;SDS011;63171;50.520;30.486;2023-05-10T02:23:26;3.63;;;2.58;;
45252;SDS011;63171;50.520;30.486;2023-05-10T02:24:18;2.83;;;2.45;;
45252;SDS011;63171;50.520;30.486;2023-05-10T02:25:10;3.60;;;2.75;;
45252;SDS011;63171;50.520;30.486;2023-05-10T02:26:02;5.40;;;2.45;;
45252;SDS011;63171;50.520;30.486;2023-05-10T02:26:55;3.58;;;2.63;;
45252;SDS011;63171;50.520;30.486;2023-05-10T02:27:46;8.15;;;3.00;;
45252;SDS011;63171;50.520;30.486;2023-05-10T02:28:38;4.90;;;2.58;;
45252;SDS011;63171;50.520;30.486;2023-05-10T02:29:30;6.18;;;2.83;;
45252;SDS011;63171;50.520;30.486;2023-05-10T02:30:22;5.53;;;3.15;;
45252;SDS011;63171;50.520;30.486;2023-05-10T02:31:13;8.20;;;2.70;;
45252;SDS011;63171;50.520;30.486;2023-05-10T02:32:05;3.15;;;2.80;;
45252;SDS011;63171;50.520;30.486;2023-05-10T02:32:55;3.72;;;2.42;;
45252;SDS011;63171;50.520;30.486;2023-05-10T02:33:47;3.55;;;2.78;;
45252;SDS011;63171;50.520;30.486;2023-05-10T02:34:39;2.17;;;1.98;;
45252;SDS011;63171;50.520;30.486;2023-05-10T02:35:31;4.50;;;3.22;;
45252;SDS011;63171;50.520;30.486;2023-05-10T02:36:22;4.97;;;3.13;;
45252;SDS011;63171;50.520;30.486;2023-05-10T02:37:13;3.20;;;2.83;;
45252;SDS011;63171;50.520;30.486;2023-05-10T02:38:04;3.08;;;2.65;;
45252;SDS011;63171;50.520;30.486;2023-05-10T02:38:56;5.13;;;3.30;;
45252;SDS011;63171;50.520;30.486;2023-05-10T02:39:50;4.82;;;3.13;;
45252;SDS011;63171;50.520;30.486;2023-05-10T02:40:42;3.95;;;2.92;;
45252;SDS011;63171;50.520;30.486;2023-05-10T02:41:33;4.40;;;3.28;;
45252;SDS011;63171;50.520;30.486;2023-05-10T02:42:24;4.45;;;3.28;;
45252;SDS011;63171;50.520;30.486;2023-05-10T02:43:16;4.07;;;3.60;;
45252;SDS011;63171;50.520;30.486;2023-05-10T02:44:08;4.68;;;3.40;;
45252;SDS011;63171;50.520;30.486;2023-05-10T02:45:00;3.42;;;2.85;;
45252;SDS011;63171;50.520;30.486;2023-05-10T02:45:52;8.98;;;4.47;;
45252;SDS011;63171;50.520;30.486;2023-05-10T02:46:42;3.67;;;2.88;;
45252;SDS011;63171;50.520;30.486;2023-05-10T02:47:33;4.57;;;2.92;;
45252;SDS011;63171;50.520;30.486;2023-05-10T02:48:23;5.00;;;3.00;;
45252;SDS011;63171;50.520;30.486;2023-05-10T02:49:14;3.67;;;3.15;;
45252;SDS011;63171;50.520;30.486;2023-05-10T02:50:06;5.82;;;2.80;;
45252;SDS011;63171;50.520;30.486;2023-05-10T02:51:00;10.05;;;3.35;;
45252;SDS011;63171;50.520;30.486;2023-05-10T02:51:56;5.70;;;3.40;;
45252;SDS011;63171;50.520;30.486;2023-05-10T02:52:51;5.00;;;3.28;;
45252;SDS011;63171;50.520;30.486;2023-05-10T02:53:43;3.25;;;2.60;;
45252;SDS011;63171;50.520;30.486;2023-05-10T02:54:38;4.78;;;2.53;;
45252;SDS011;63171;50.520;30.486;2023-05-10T02:55:34;5.88;;;4.10;;
45252;SDS011;63171;50.520;30.486;2023-05-10T02:56:28;5.57;;;3.67;;
45252;SDS011;63171;50.520;30.486;2023-05-10T02:57:22;8.38;;;3.83;;
45252;SDS011;63171;50.520;30.486;2023-05-10T02:58:16;7.60;;;3.85;;
45252;SDS011;63171;50.520;30.486;2023-05-10T02:59:08;4.50;;;3.50;;
45252;SDS011;63171;50.520;30.486;2023-05-10T02:59:59;7.32;;;3.00;;
45252;SDS011;63171;50.520;30.486;2023-05-10T03:00:49;5.32;;;3.30;;
45252;SDS011;63171;50.520;30.486;2023-05-10T03:01:40;8.50;;;3.60;;
45252;SDS011;63171;50.520;30.486;2023-05-10T03:02:30;4.22;;;3.63;;
45252;SDS011;63171;50.520;30.486;2023-05-10T03:03:19;5.60;;;3.45;;
45252;SDS011;63171;50.520;30.486;2023-05-10T03:04:12;6.57;;;3.90;;
45252;SDS011;63171;50.520;30.486;2023-05-10T03:05:02;6.03;;;3.75;;
45252;SDS011;63171;50.520;30.486;2023-05-10T03:05:54;4.13;;;3.58;;
45252;SDS011;63171;50.520;30.486;2023-05-10T03:06:45;5.85;;;3.75;;
45252;SDS011;63171;50.520;30.486;2023-05-10T03:07:36;5.03;;;3.65;;
45252;SDS011;63171;50.520;30.486;2023-05-10T03:08:26;3.67;;;3.28;;
45252;SDS011;63171;50.520;30.486;2023-05-10T03:09:18;6.53;;;3.35;;
45252;SDS011;63171;50.520;30.486;2023-05-10T03:10:09;3.38;;;2.85;;
45252;SDS011;63171;50.520;30.486;2023-05-10T03:11:14;5.93;;;3.85;;
45252;SDS011;63171;50.520;30.486;2023-05-10T03:12:14;10.13;;;4.40;;
45252;SDS011;63171;50.520;30.486;2023-05-10T03:13:16;6.07;;;3.63;;
45252;SDS011;63171;50.520;30.486;2023-05-10T03:14:16;5.22;;;3.45;;
45252;SDS011;63171;50.520;30.486;2023-05-10T03:15:17;5.60;;;3.30;;
45252;SDS011;63171;50.520;30.486;2023-05-10T03:16:13;4.93;;;2.85;;
45252;SDS011;63171;50.520;30.486;2023-05-10T03:17:09;4.75;;;3.42;;
45252;SDS011;63171;50.520;30.486;2023-05-10T03:18:05;8.02;;;4.18;;
45252;SDS011;63171;50.520;30.486;2023-05-10T03:19:01;6.95;;;3.95;;
45252;SDS011;63171;50.520;30.486;2023-05-10T03:20:03;6.22;;;3.53;;
45252;SDS011;63171;50.520;30.486;2023-05-10T03:20:59;11.13;;;3.42;;
45252;SDS011;63171;50.520;30.486;2023-05-10T03:21:54;9.48;;;3.63;;
45252;SDS011;63171;50.520;30.486;2023-05-10T03:22:53;5.93;;;4.32;;
45252;SDS011;63171;50.520;30.486;2023-05-10T03:23:50;10.73;;;4.45;;
45252;SDS011;63171;50.520;30.486;2023-05-10T03:24:47;10.85;;;4.90;;
45252;SDS011;63171;50.520;30.486;2023-05-10T03:25:39;9.63;;;5.20;;
45252;SDS011;63171;50.520;30.486;2023-05-10T03:26:33;7.15;;;4.43;;
45252;SDS011;63171;50.520;30.486;2023-05-10T03:27:34;14.70;;;6.38;;
45252;SDS011;63171;50.520;30.486;2023-05-10T03:28:26;12.85;;;5.88;;
45252;SDS011;63171;50.520;30.486;2023-05-10T03:30:08;16.70;;;6.95;;
45252;SDS011;63171;50.520;30.486;2023-05-10T03:30:59;17.38;;;7.95;;
45252;SDS011;63171;50.520;30.486;2023-05-10T03:31:54;13.73;;;6.55;;
45252;SDS011;63171;50.520;30.486;2023-05-10T03:32:44;12.55;;;5.95;;
45252;SDS011;63171;50.520;30.486;2023-05-10T03:33:35;11.40;;;6.28;;
45252;SDS011;63171;50.520;30.486;2023-05-10T03:34:25;11.48;;;6.35;;
45252;SDS011;63171;50.520;30.486;2023-05-10T03:35:16;12.77;;;7.13;;
45252;SDS011;63171;50.520;30.486;2023-05-10T03:36:07;11.73;;;6.60;;
45252;SDS011;63171;50.520;30.486;2023-05-10T03:36:59;11.38;;;5.88;;
45252;SDS011;63171;50.520;30.486;2023-05-10T03:37:53;7.07;;;4.88;;
45252;SDS011;63171;50.520;30.486;2023-05-10T03:38:44;6.45;;;4.68;;
45252;SDS011;63171;50.520;30.486;2023-05-10T03:39:34;4.35;;;3.63;;
45252;SDS011;63171;50.520;30.486;2023-05-10T03:40:25;6.78;;;3.75;;
45252;SDS011;63171;50.520;30.486;2023-05-10T03:41:15;7.43;;;4.25;;
45252;SDS011;63171;50.520;30.486;2023-05-10T03:42:06;7.78;;;3.60;;
45252;SDS011;63171;50.520;30.486;2023-05-10T03:42:56;5.70;;;2.88;;
45252;SDS011;63171;50.520;30.486;2023-05-10T03:43:46;6.22;;;4.45;;
45252;SDS011;63171;50.520;30.486;2023-05-10T03:44:36;9.98;;;3.80;;
45252;SDS011;63171;50.520;30.486;2023-05-10T03:45:27;7.70;;;3.50;;
45252;SDS011;63171;50.520;30.486;2023-05-10T03:46:19;5.15;;;3.33;;
45252;SDS011;63171;50.520;30.486;2023-05-10T03:47:09;5.57;;;3.38;;
45252;SDS011;63171;50.520;30.486;2023-05-10T03:48:00;5.25;;;2.72;;
45252;SDS011;63171;50.520;30.486;2023-05-10T03:48:50;4.90;;;3.45;;
45252;SDS011;63171;50.520;30.486;2023-05-10T03:49:41;10.60;;;5.45;;
45252;SDS011;63171;50.520;30.486;2023-05-10T03:50:31;8.63;;;4.32;;
45252;SDS011;63171;50.520;30.486;2023-05-10T03:51:23;9.25;;;5.30;;
45252;SDS011;63171;50.520;30.486;2023-05-10T03:52:17;6.97;;;4.90;;
45252;SDS011;63171;50.520;30.486;2023-05-10T03:53:08;6.32;;;4.10;;
45252;SDS011;63171;50.520;30.486;2023-05-10T03:53:58;8.88;;;4.43;;
45252;SDS011;63171;50.520;30.486;2023-05-10T03:54:48;6.68;;;4.13;;
45252;SDS011;63171;50.520;30.486;2023-05-10T03:55:38;8.13;;;4.10;;
45252;SDS011;63171;50.520;30.486;2023-05-10T03:56:29;6.22;;;3.10;;
45252;SDS011;63171;50.520;30.486;2023-05-10T03:57:19;10.90;;;4.05;;
45252;SDS011;63171;50.520;30.486;2023-05-10T03:58:10;4.32;;;3.13;;
45252;SDS011;63171;50.520;30.486;2023-05-10T03:59:00;7.22;;;3.63;;
45252;SDS011;63171;50.520;30.486;2023-05-10T03:59:50;4.68;;;3.53;;
45252;SDS011;63171;50.520;30.486;2023-05-10T04:00:40;5.10;;;2.80;;
45252;SDS011;63171;50.520;30.486;2023-05-10T04:01:34;6.72;;;4.00;;
45252;SDS011;63171;50.520;30.486;2023-05-10T04:03:15;4.97;;;4.03;;
45252;SDS011;63171;50.520;30.486;2023-05-10T04:04:06;4.88;;;3.38;;
45252;SDS011;63171;50.520;30.486;2023-05-10T04:04:57;5.47;;;3.65;;
45252;SDS011;63171;50.520;30.486;2023-05-10T04:05:47;7.25;;;3.75;;
45252;SDS011;63171;50.520;30.486;2023-05-10T04:06:39;8.02;;;4.40;;
45252;SDS011;63171;50.520;30.486;2023-05-10T04:07:29;5.20;;;3.67;;
45252;SDS011;63171;50.520;30.486;2023-05-10T04:08:19;8.10;;;4.57;;
45252;SDS011;63171;50.520;30.486;2023-05-10T04:09:09;5.88;;;3.80;;
45252;SDS011;63171;50.520;30.486;2023-05-10T04:10:02;7.10;;;3.95;;
45252;SDS011;63171;50.520;30.486;2023-05-10T04:10:51;6.38;;;3.63;;
45252;SDS011;63171;50.520;30.486;2023-05-10T04:11:42;8.30;;;4.13;;
45252;SDS011;63171;50.520;30.486;2023-05-10T04:12:32;5.18;;;4.15;;
45252;SDS011;63171;50.520;30.486;2023-05-10T04:13:23;12.57;;;5.35;;
45252;SDS011;63171;50.520;30.486;2023-05-10T04:14:13;7.03;;;3.20;;
45252;SDS011;63171;50.520;30.486;2023-05-10T04:15:03;6.65;;;4.07;;
45252;SDS011;63171;50.520;30.486;2023-05-10T04:15:54;9.38;;;4.13;;
45252;SDS011;63171;50.520;30.486;2023-05-10T04:16:44;4.07;;;3.20;;
45252;SDS011;63171;50.520;30.486;2023-05-10T04:17:34;4.32;;;3.60;;
45252;SDS011;63171;50.520;30.486;2023-05-10T04:18:24;5.45;;;2.88;;
45252;SDS011;63171;50.520;30.486;2023-05-10T04:19:15;4.57;;;3.22;;
45252;SDS011;63171;50.520;30.486;2023-05-10T04:20:04;8.32;;;4.63;;
45252;SDS011;63171;50.520;30.486;2023-05-10T04:20:56;5.88;;;2.80;;
45252;SDS011;63171;50.520;30.486;2023-05-10T04:21:47;8.25;;;3.75;;
45252;SDS011;63171;50.520;30.486;2023-05-10T04:22:38;6.20;;;2.85;;
45252;SDS011;63171;50.520;30.486;2023-05-10T04:23:27;5.53;;;3.55;;
45252;SDS011;63171;50.520;30.486;2023-05-10T04:24:18;3.63;;;2.47;;
45252;SDS011;63171;50.520;30.486;2023-05-10T04:25:08;6.55;;;2.90;;
45252;SDS011;63171;50.520;30.486;2023-05-10T04:26:00;4.72;;;2.60;;
45252;SDS011;63171;50.520;30.486;2023-05-10T04:26:50;5.63;;;2.60;;
45252;SDS011;63171;50.520;30.486;2023-05-10T04:27:41;6.68;;;2.88;;
45252;SDS011;63171;50.520;30.486;2023-05-10T04:28:31;5.18;;;2.88;;
45252;SDS011;63171;50.520;30.486;2023-05-10T04:29:22;4.80;;;2.97;;
45252;SDS011;63171;50.520;30.486;2023-05-10T04:30:12;3.47;;;2.70;;
45252;SDS011;63171;50.520;30.486;2023-05-10T04:31:03;5.32;;;2.63;;
45252;SDS011;63171;50.520;30.486;2023-05-10T04:31:54;6.57;;;2.63;;
45252;SDS011;63171;50.520;30.486;2023-05-10T04:32:45;6.28;;;3.05;;
45252;SDS011;63171;50.520;30.486;2023-05-10T04:33:35;6.65;;;2.75;;
45252;SDS011;63171;50.520;30.486;2023-05-10T04:34:26;5.28;;;2.33;;
45252;SDS011;63171;50.520;30.486;2023-05-10T04:35:16;7.07;;;2.78;;
45252;SDS011;63171;50.520;30.486;2023-05-10T04:36:07;3.65;;;2.47;;
45252;SDS011;63171;50.520;30.486;2023-05-10T04:36:58;5.38;;;2.50;;
45252;SDS011;63171;50.520;30.486;2023-05-10T04:37:49;5.00;;;2.40;;
45252;SDS011;63171;50.520;30.486;2023-05-10T04:38:39;3.97;;;3.05;;
45252;SDS011;63171;50.520;30.486;2023-05-10T04:39:30;4.60;;;2.90;;
45252;SDS011;63171;50.520;30.486;2023-05-10T04:40:20;8.68;;;3.50;;
45252;SDS011;63171;50.520;30.486;2023-05-10T04:41:10;7.38;;;2.97;;
45252;SDS011;63171;50.520;30.486;2023-05-10T04:42:00;4.78;;;2.63;;
45252;SDS011;63171;50.520;30.486;2023-05-10T04:42:52;4.95;;;2.92;;
45252;SDS011;63171;50.520;30.486;2023-05-10T04:43:41;4.15;;;2.78;;
45252;SDS011;63171;50.520;30.486;2023-05-10T04:44:32;5.25;;;2.58;;
45252;SDS011;63171;50.520;30.486;2023-05-10T04:45:21;4.80;;;2.90;;
45252;SDS011;63171;50.520;30.486;2023-05-10T04:46:12;3.40;;;2.72;;
45252;SDS011;63171;50.520;30.486;2023-05-10T04:47:02;3.47;;;2.20;;
45252;SDS011;63171;50.520;30.486;2023-05-10T04:47:52;4.43;;;2.67;;
45252;SDS011;63171;50.520;30.486;2023-05-10T04:48:42;2.40;;;2.20;;
45252;SDS011;63171;50.520;30.486;2023-05-10T04:49:32;5.15;;;2.95;;
45252;SDS011;63171;50.520;30.486;2023-05-10T04:50:22;5.28;;;2.58;;
45252;SDS011;63171;50.520;30.486;2023-05-10T04:51:13;4.57;;;2.60;;
45252;SDS011;63171;50.520;30.486;2023-05-10T04:52:04;3.30;;;2.50;;
45252;SDS011;63171;50.520;30.486;2023-05-10T04:52:55;2.85;;;2.50;;
45252;SDS011;63171;50.520;30.486;2023-05-10T04:53:45;8.02;;;3.25;;
45252;SDS011;63171;50.520;30.486;2023-05-10T04:54:36;3.03;;;2.42;;
45252;SDS011;63171;50.520;30.486;2023-05-10T04:55:25;6.75;;;2.83;;
45252;SDS011;63171;50.520;30.486;2023-05-10T04:56:16;6.20;;;2.70;;
45252;SDS011;63171;50.520;30.486;2023-05-10T04:57:05;5.60;;;2.65;;
45252;SDS011;63171;50.520;30.486;2023-05-10T04:57:56;5.40;;;2.55;;
45252;SDS011;63171;50.520;30.486;2023-05-10T04:58:46;7.40;;;2.75;;
45252;SDS011;63171;50.520;30.486;2023-05-10T04:59:37;3.50;;;2.78;;
45252;SDS011;63171;50.520;30.486;2023-05-10T05:00:27;3.00;;;2.70;;
45252;SDS011;63171;50.520;30.486;2023-05-10T05:01:17;3.00;;;2.20;;
45252;SDS011;63171;50.520;30.486;2023-05-10T05:02:07;5.10;;;2.83;;
45252;SDS011;63171;50.520;30.486;2023-05-10T05:02:58;3.83;;;2.60;;
45252;SDS011;63171;50.520;30.486;2023-05-10T05:03:48;2.45;;;2.22;;
45252;SDS011;63171;50.520;30.486;2023-05-10T05:04:39;3.15;;;2.22;;
45252;SDS011;63171;50.520;30.486;2023-05-10T05:05:28;3.80;;;2.80;;
45252;SDS011;63171;50.520;30.486;2023-05-10T05:06:19;5.03;;;2.70;;
45252;SDS011;63171;50.520;30.486;2023-05-10T05:07:11;4.07;;;2.40;;
45252;SDS011;63171;50.520;30.486;2023-05-10T05:08:02;5.07;;;2.28;;
45252;SDS011;63171;50.520;30.486;2023-05-10T05:08:52;3.92;;;2.00;;
45252;SDS011;63171;50.520;30.486;2023-05-10T05:09:43;2.45;;;2.20;;
45252;SDS011;63171;50.520;30.486;2023-05-10T05:10:32;7.72;;;2.38;;
45252;SDS011;63171;50.520;30.486;2023-05-10T05:11:23;4.75;;;2.42;;
45252;SDS011;63171;50.520;30.486;2023-05-10T05:12:14;3.60;;;2.00;;
45252;SDS011;63171;50.520;30.486;2023-05-10T05:13:05;4.75;;;2.47;;
45252;SDS011;63171;50.520;30.486;2023-05-10T05:13:54;4.53;;;2.28;;
45252;SDS011;63171;50.520;30.486;2023-05-10T05:14:44;3.58;;;2.63;;
45252;SDS011;63171;50.520;30.486;2023-05-10T05:15:34;8.05;;;2.38;;
45252;SDS011;63171;50.520;30.486;2023-05-10T05:16:25;5.05;;;2.55;;
45252;SDS011;63171;50.520;30.486;2023-05-10T05:17:16;3.65;;;2.55;;
45252;SDS011;63171;50.520;30.486;2023-05-10T05:18:06;2.92;;;2.15;;
45252;SDS011;63171;50.520;30.486;2023-05-10T05:18:56;6.70;;;2.83;;
45252;SDS011;63171;50.520;30.486;2023-05-10T05:19:47;4.45;;;2.80;;
45252;SDS011;63171;50.520;30.486;2023-05-10T05:20:36;3.17;;;2.60;;
45252;SDS011;63171;50.520;30.486;2023-05-10T05:21:27;9.32;;;3.45;;
45252;SDS011;63171;50.520;30.486;2023-05-10T05:23:16;6.03;;;2.60;;
45252;SDS011;63171;50.520;30.486;2023-05-10T05:24:06;3.92;;;2.72;;
45252;SDS011;63171;50.520;30.486;2023-05-10T05:24:59;3.20;;;2.50;;